sensor_id;sensor_type;location;lat;lon;timestamp;temperature;humidity
10051;DHT22;5065;46.942;7.432;2023-03-21T00:00:36;10.20;99.90
10051;DHT22;5065;46.942;7.432;2023-03-21T00:03:04;10.20;99.90
10051;DHT22;5065;46.942;7.432;2023-03-21T00:05:32;10.20;99.90
10051;DHT22;5065;46.942;7.432;2023-03-21T00:08:00;10.20;99.90
10051;DHT22;5065;46.942;7.432;2023-03-21T00:10:27;10.20;99.90
10051;DHT22;5065;46.942;7.432;2023-03-21T00:12:54;10.10;99.90
10051;DHT22;5065;46.942;7.432;2023-03-21T00:15:24;10.10;99.90
10051;DHT22;5065;46.942;7.432;2023-03-21T00:17:53;10.10;99.90
10051;DHT22;5065;46.942;7.432;2023-03-21T00:20:23;10.00;99.90
10051;DHT22;5065;46.942;7.432;2023-03-21T00:22:51;10.00;99.90
10051;DHT22;5065;46.942;7.432;2023-03-21T00:25:18;9.90;99.90
10051;DHT22;5065;46.942;7.432;2023-03-21T00:27:45;9.90;99.90
10051;DHT22;5065;46.942;7.432;2023-03-21T00:30:14;9.90;99.90
10051;DHT22;5065;46.942;7.432;2023-03-21T00:32:41;9.90;99.90
10051;DHT22;5065;46.942;7.432;2023-03-21T00:35:08;9.90;99.90
10051;DHT22;5065;46.942;7.432;2023-03-21T00:37:36;9.90;99.90
10051;DHT22;5065;46.942;7.432;2023-03-21T00:40:06;9.90;99.90
10051;DHT22;5065;46.942;7.432;2023-03-21T00:42:35;9.90;99.90
10051;DHT22;5065;46.942;7.432;2023-03-21T00:45:03;9.90;99.90
10051;DHT22;5065;46.942;7.432;2023-03-21T00:47:32;9.90;99.90
10051;DHT22;5065;46.942;7.432;2023-03-21T00:50:00;9.80;99.90
10051;DHT22;5065;46.942;7.432;2023-03-21T00:52:27;9.80;99.90
10051;DHT22;5065;46.942;7.432;2023-03-21T00:54:54;9.70;99.90
10051;DHT22;5065;46.942;7.432;2023-03-21T00:57:22;9.70;99.90
10051;DHT22;5065;46.942;7.432;2023-03-21T00:59:49;9.60;99.90
10051;DHT22;5065;46.942;7.432;2023-03-21T01:02:17;9.60;99.90
10051;DHT22;5065;46.942;7.432;2023-03-21T01:04:47;9.60;99.90
10051;DHT22;5065;46.942;7.432;2023-03-21T01:07:15;9.60;99.90
10051;DHT22;5065;46.942;7.432;2023-03-21T01:09:42;9.60;99.90
10051;DHT22;5065;46.942;7.432;2023-03-21T01:12:10;9.60;99.90
10051;DHT22;5065;46.942;7.432;2023-03-21T01:14:39;9.60;99.90
10051;DHT22;5065;46.942;7.432;2023-03-21T01:17:06;9.50;99.90
10051;DHT22;5065;46.942;7.432;2023-03-21T01:19:33;9.50;99.90
10051;DHT22;5065;46.942;7.432;2023-03-21T01:22:00;9.50;99.90
10051;DHT22;5065;46.942;7.432;2023-03-21T01:24:28;9.50;99.90
10051;DHT22;5065;46.942;7.432;2023-03-21T01:26:55;9.50;99.90
10051;DHT22;5065;46.942;7.432;2023-03-21T01:29:22;9.40;99.90
10051;DHT22;5065;46.942;7.432;2023-03-21T01:31:50;9.40;99.90
10051;DHT22;5065;46.942;7.432;2023-03-21T01:34:17;9.30;99.90
10051;DHT22;5065;46.942;7.432;2023-03-21T01:36:45;9.30;99.90
10051;DHT22;5065;46.942;7.432;2023-03-21T01:39:12;9.30;99.90
10051;DHT22;5065;46.942;7.432;2023-03-21T01:41:40;9.30;99.90
10051;DHT22;5065;46.942;7.432;2023-03-21T01:44:13;9.30;99.90
10051;DHT22;5065;46.942;7.432;2023-03-21T01:46:42;9.20;99.90
10051;DHT22;5065;46.942;7.432;2023-03-21T01:49:15;9.20;99.90
10051;DHT22;5065;46.942;7.432;2023-03-21T01:51:47;9.20;99.90
10051;DHT22;5065;46.942;7.432;2023-03-21T01:54:20;9.10;99.90
10051;DHT22;5065;46.942;7.432;2023-03-21T01:56:51;9.10;99.90
10051;DHT22;5065;46.942;7.432;2023-03-21T01:59:21;9.00;99.90
10051;DHT22;5065;46.942;7.432;2023-03-21T02:01:51;9.00;99.90
10051;DHT22;5065;46.942;7.432;2023-03-21T02:04:20;8.90;99.90
10051;DHT22;5065;46.942;7.432;2023-03-21T02:06:56;8.90;99.90
10051;DHT22;5065;46.942;7.432;2023-03-21T02:09:27;8.80;99.90
10051;DHT22;5065;46.942;7.432;2023-03-21T02:11:58;8.70;99.90
10051;DHT22;5065;46.942;7.432;2023-03-21T02:14:26;8.70;99.90
10051;DHT22;5065;46.942;7.432;2023-03-21T02:17:00;8.60;99.90
10051;DHT22;5065;46.942;7.432;2023-03-21T02:20:12;8.60;99.90
10051;DHT22;5065;46.942;7.432;2023-03-21T02:26:22;8.50;99.90
10051;DHT22;5065;46.942;7.432;2023-03-21T02:28:58;8.60;99.90
10051;DHT22;5065;46.942;7.432;2023-03-21T02:31:37;8.60;99.90
10051;DHT22;5065;46.942;7.432;2023-03-21T02:37:23;8.60;99.90
10051;DHT22;5065;46.942;7.432;2023-03-21T02:40:02;8.50;99.90
10051;DHT22;5065;46.942;7.432;2023-03-21T02:42:43;8.50;99.90
10051;DHT22;5065;46.942;7.432;2023-03-21T02:45:16;8.60;99.90
10051;DHT22;5065;46.942;7.432;2023-03-21T02:47:47;8.50;99.90
10051;DHT22;5065;46.942;7.432;2023-03-21T02:50:20;8.60;99.90
10051;DHT22;5065;46.942;7.432;2023-03-21T02:52:51;8.60;99.90
10051;DHT22;5065;46.942;7.432;2023-03-21T02:55:23;8.60;99.90
10051;DHT22;5065;46.942;7.432;2023-03-21T02:57:53;8.60;99.90
10051;DHT22;5065;46.942;7.432;2023-03-21T03:00:22;8.60;99.90
10051;DHT22;5065;46.942;7.432;2023-03-21T03:02:49;8.60;99.90
10051;DHT22;5065;46.942;7.432;2023-03-21T03:05:18;8.60;99.90
10051;DHT22;5065;46.942;7.432;2023-03-21T03:08:01;8.50;99.90
10051;DHT22;5065;46.942;7.432;2023-03-21T03:10:52;8.50;99.90
10051;DHT22;5065;46.942;7.432;2023-03-21T03:13:34;8.50;99.90
10051;DHT22;5065;46.942;7.432;2023-03-21T03:16:12;8.50;99.90
10051;DHT22;5065;46.942;7.432;2023-03-21T03:18:49;8.50;99.90
10051;DHT22;5065;46.942;7.432;2023-03-21T03:21:19;8.40;99.90
10051;DHT22;5065;46.942;7.432;2023-03-21T03:23:51;8.40;99.90
10051;DHT22;5065;46.942;7.432;2023-03-21T03:26:24;8.40;99.90
10051;DHT22;5065;46.942;7.432;2023-03-21T03:28:56;8.40;99.90
10051;DHT22;5065;46.942;7.432;2023-03-21T03:31:27;8.30;99.90
10051;DHT22;5065;46.942;7.432;2023-03-21T03:33:58;8.30;99.90
10051;DHT22;5065;46.942;7.432;2023-03-21T03:36:30;8.30;99.90
10051;DHT22;5065;46.942;7.432;2023-03-21T03:39:04;8.40;99.90
10051;DHT22;5065;46.942;7.432;2023-03-21T03:41:37;8.30;99.90
10051;DHT22;5065;46.942;7.432;2023-03-21T03:44:07;8.30;99.90
10051;DHT22;5065;46.942;7.432;2023-03-21T03:46:38;8.40;99.90
10051;DHT22;5065;46.942;7.432;2023-03-21T03:49:09;8.30;99.90
10051;DHT22;5065;46.942;7.432;2023-03-21T03:51:41;8.30;99.90
10051;DHT22;5065;46.942;7.432;2023-03-21T03:54:13;8.20;99.90
10051;DHT22;5065;46.942;7.432;2023-03-21T03:56:43;8.10;99.90
10051;DHT22;5065;46.942;7.432;2023-03-21T03:59:10;8.10;99.90
10051;DHT22;5065;46.942;7.432;2023-03-21T04:01:39;8.00;99.90
10051;DHT22;5065;46.942;7.432;2023-03-21T04:04:06;8.00;99.90
10051;DHT22;5065;46.942;7.432;2023-03-21T04:06:33;8.00;99.90
10051;DHT22;5065;46.942;7.432;2023-03-21T04:09:00;8.00;99.90
10051;DHT22;5065;46.942;7.432;2023-03-21T04:11:30;8.00;99.90
10051;DHT22;5065;46.942;7.432;2023-03-21T04:13:58;7.90;99.90
10051;DHT22;5065;46.942;7.432;2023-03-21T04:16:25;7.80;99.90
10051;DHT22;5065;46.942;7.432;2023-03-21T04:18:53;7.80;99.90
10051;DHT22;5065;46.942;7.432;2023-03-21T04:21:20;7.80;99.90
10051;DHT22;5065;46.942;7.432;2023-03-21T04:23:48;7.70;99.90
10051;DHT22;5065;46.942;7.432;2023-03-21T04:26:16;7.70;99.90
10051;DHT22;5065;46.942;7.432;2023-03-21T04:28:44;7.60;99.90
10051;DHT22;5065;46.942;7.432;2023-03-21T04:31:11;7.70;99.90
10051;DHT22;5065;46.942;7.432;2023-03-21T04:33:39;7.60;99.90
10051;DHT22;5065;46.942;7.432;2023-03-21T04:36:08;7.80;99.90
10051;DHT22;5065;46.942;7.432;2023-03-21T04:38:51;7.70;99.90
10051;DHT22;5065;46.942;7.432;2023-03-21T04:41:18;7.80;99.90
10051;DHT22;5065;46.942;7.432;2023-03-21T04:43:47;7.70;99.90
10051;DHT22;5065;46.942;7.432;2023-03-21T04:46:14;7.70;99.90
10051;DHT22;5065;46.942;7.432;2023-03-21T04:48:41;7.70;99.90
10051;DHT22;5065;46.942;7.432;2023-03-21T04:51:08;7.70;99.90
10051;DHT22;5065;46.942;7.432;2023-03-21T04:53:35;7.60;99.90
10051;DHT22;5065;46.942;7.432;2023-03-21T04:56:03;7.60;99.90
10051;DHT22;5065;46.942;7.432;2023-03-21T04:58:31;7.60;99.90
10051;DHT22;5065;46.942;7.432;2023-03-21T05:00:59;7.60;99.90
10051;DHT22;5065;46.942;7.432;2023-03-21T05:03:27;7.60;99.90
10051;DHT22;5065;46.942;7.432;2023-03-21T05:05:59;7.60;99.90
10051;DHT22;5065;46.942;7.432;2023-03-21T05:08:27;7.50;99.90
10051;DHT22;5065;46.942;7.432;2023-03-21T05:10:54;7.60;99.90
10051;DHT22;5065;46.942;7.432;2023-03-21T05:13:21;7.60;99.90
10051;DHT22;5065;46.942;7.432;2023-03-21T05:15:48;7.60;99.90
10051;DHT22;5065;46.942;7.432;2023-03-21T05:18:17;7.60;99.90
10051;DHT22;5065;46.942;7.432;2023-03-21T05:20:50;7.60;99.90
10051;DHT22;5065;46.942;7.432;2023-03-21T05:23:19;7.70;99.90
10051;DHT22;5065;46.942;7.432;2023-03-21T05:25:46;7.70;99.90
10051;DHT22;5065;46.942;7.432;2023-03-21T05:28:13;7.70;99.90
10051;DHT22;5065;46.942;7.432;2023-03-21T05:30:43;7.70;99.90
10051;DHT22;5065;46.942;7.432;2023-03-21T05:33:10;7.70;99.90
10051;DHT22;5065;46.942;7.432;2023-03-21T05:35:39;7.70;99.90
10051;DHT22;5065;46.942;7.432;2023-03-21T05:38:06;7.70;99.90
10051;DHT22;5065;46.942;7.432;2023-03-21T05:40:33;7.80;99.90
10051;DHT22;5065;46.942;7.432;2023-03-21T05:43:00;7.80;99.90
10051;DHT22;5065;46.942;7.432;2023-03-21T05:45:27;7.80;99.90
10051;DHT22;5065;46.942;7.432;2023-03-21T05:47:54;7.80;99.90
10051;DHT22;5065;46.942;7.432;2023-03-21T05:50:21;7.70;99.90
10051;DHT22;5065;46.942;7.432;2023-03-21T05:52:50;7.70;99.90
10051;DHT22;5065;46.942;7.432;2023-03-21T05:55:17;7.70;99.90
10051;DHT22;5065;46.942;7.432;2023-03-21T05:57:44;7.70;99.90
10051;DHT22;5065;46.942;7.432;2023-03-21T06:00:12;7.70;99.90
10051;DHT22;5065;46.942;7.432;2023-03-21T06:02:40;7.70;99.90
10051;DHT22;5065;46.942;7.432;2023-03-21T06:05:08;7.80;99.90
10051;DHT22;5065;46.942;7.432;2023-03-21T06:07:35;7.90;99.90
10051;DHT22;5065;46.942;7.432;2023-03-21T06:10:04;7.90;99.90
10051;DHT22;5065;46.942;7.432;2023-03-21T06:12:32;8.00;99.90
10051;DHT22;5065;46.942;7.432;2023-03-21T06:14:59;8.00;99.90
10051;DHT22;5065;46.942;7.432;2023-03-21T06:17:26;8.10;99.90
10051;DHT22;5065;46.942;7.432;2023-03-21T06:19:53;8.10;99.90
10051;DHT22;5065;46.942;7.432;2023-03-21T06:22:21;8.20;99.90
10051;DHT22;5065;46.942;7.432;2023-03-21T06:24:48;8.20;99.90
10051;DHT22;5065;46.942;7.432;2023-03-21T06:27:17;8.30;99.90
10051;DHT22;5065;46.942;7.432;2023-03-21T06:29:44;8.30;99.90
10051;DHT22;5065;46.942;7.432;2023-03-21T06:32:11;8.40;99.90
10051;DHT22;5065;46.942;7.432;2023-03-21T06:34:39;8.50;99.90
10051;DHT22;5065;46.942;7.432;2023-03-21T06:37:06;8.50;99.90
10051;DHT22;5065;46.942;7.432;2023-03-21T06:39:33;8.60;99.90
10051;DHT22;5065;46.942;7.432;2023-03-21T06:42:01;8.60;99.90
10051;DHT22;5065;46.942;7.432;2023-03-21T06:44:29;8.70;99.90
10051;DHT22;5065;46.942;7.432;2023-03-21T06:46:56;8.90;99.90
10051;DHT22;5065;46.942;7.432;2023-03-21T06:49:24;9.10;99.90
10051;DHT22;5065;46.942;7.432;2023-03-21T06:51:51;9.30;99.90
10051;DHT22;5065;46.942;7.432;2023-03-21T06:54:18;9.60;99.90
10051;DHT22;5065;46.942;7.432;2023-03-21T06:56:46;9.80;99.90
10051;DHT22;5065;46.942;7.432;2023-03-21T06:59:13;10.00;99.90
10051;DHT22;5065;46.942;7.432;2023-03-21T07:01:41;10.10;99.90
10051;DHT22;5065;46.942;7.432;2023-03-21T07:04:09;10.30;99.90
10051;DHT22;5065;46.942;7.432;2023-03-21T07:06:36;10.40;99.90
10051;DHT22;5065;46.942;7.432;2023-03-21T07:09:04;10.50;99.90
10051;DHT22;5065;46.942;7.432;2023-03-21T07:11:32;10.60;99.90
10051;DHT22;5065;46.942;7.432;2023-03-21T07:13:59;10.60;99.90
10051;DHT22;5065;46.942;7.432;2023-03-21T07:16:26;10.70;99.90
10051;DHT22;5065;46.942;7.432;2023-03-21T07:18:55;10.70;99.90
10051;DHT22;5065;46.942;7.432;2023-03-21T07:21:22;10.70;99.90
10051;DHT22;5065;46.942;7.432;2023-03-21T07:23:49;10.80;99.90
10051;DHT22;5065;46.942;7.432;2023-03-21T07:26:17;10.80;99.90
10051;DHT22;5065;46.942;7.432;2023-03-21T07:28:45;10.90;99.90
10051;DHT22;5065;46.942;7.432;2023-03-21T07:31:14;10.80;99.90
10051;DHT22;5065;46.942;7.432;2023-03-21T07:33:42;10.70;99.90
10051;DHT22;5065;46.942;7.432;2023-03-21T07:36:12;10.70;99.90
10051;DHT22;5065;46.942;7.432;2023-03-21T07:38:40;10.80;99.90
10051;DHT22;5065;46.942;7.432;2023-03-21T07:41:08;10.70;99.90
10051;DHT22;5065;46.942;7.432;2023-03-21T07:43:35;10.80;99.90
10051;DHT22;5065;46.942;7.432;2023-03-21T07:46:03;10.80;99.90
10051;DHT22;5065;46.942;7.432;2023-03-21T07:48:30;10.80;99.90
10051;DHT22;5065;46.942;7.432;2023-03-21T07:50:58;10.90;99.90
10051;DHT22;5065;46.942;7.432;2023-03-21T07:53:28;10.90;99.90
10051;DHT22;5065;46.942;7.432;2023-03-21T07:55:55;10.90;99.90
10051;DHT22;5065;46.942;7.432;2023-03-21T07:58:22;11.00;99.90
10051;DHT22;5065;46.942;7.432;2023-03-21T08:00:51;11.00;99.90
10051;DHT22;5065;46.942;7.432;2023-03-21T08:03:20;11.10;99.90
10051;DHT22;5065;46.942;7.432;2023-03-21T08:05:48;11.20;99.90
10051;DHT22;5065;46.942;7.432;2023-03-21T08:08:16;11.40;99.90
10051;DHT22;5065;46.942;7.432;2023-03-21T08:10:44;11.50;99.90
10051;DHT22;5065;46.942;7.432;2023-03-21T08:13:12;11.50;99.90
10051;DHT22;5065;46.942;7.432;2023-03-21T08:15:40;11.60;99.90
10051;DHT22;5065;46.942;7.432;2023-03-21T08:18:07;11.60;99.90
10051;DHT22;5065;46.942;7.432;2023-03-21T08:20:34;11.80;99.90
10051;DHT22;5065;46.942;7.432;2023-03-21T08:23:02;11.90;99.90
10051;DHT22;5065;46.942;7.432;2023-03-21T08:25:29;12.00;99.90
10051;DHT22;5065;46.942;7.432;2023-03-21T08:28:01;12.00;99.90
10051;DHT22;5065;46.942;7.432;2023-03-21T08:30:29;12.10;99.90
10051;DHT22;5065;46.942;7.432;2023-03-21T08:32:57;12.10;99.90
10051;DHT22;5065;46.942;7.432;2023-03-21T08:35:25;12.00;99.90
10051;DHT22;5065;46.942;7.432;2023-03-21T08:37:52;12.10;99.90
10051;DHT22;5065;46.942;7.432;2023-03-21T08:40:19;12.20;99.90
10051;DHT22;5065;46.942;7.432;2023-03-21T08:42:47;12.20;99.90
10051;DHT22;5065;46.942;7.432;2023-03-21T08:45:16;12.30;99.90
10051;DHT22;5065;46.942;7.432;2023-03-21T08:47:44;12.50;99.90
10051;DHT22;5065;46.942;7.432;2023-03-21T08:50:12;12.60;99.90
10051;DHT22;5065;46.942;7.432;2023-03-21T08:52:40;12.80;99.90
10051;DHT22;5065;46.942;7.432;2023-03-21T08:55:08;13.10;99.90
10051;DHT22;5065;46.942;7.432;2023-03-21T08:57:35;13.20;99.90
10051;DHT22;5065;46.942;7.432;2023-03-21T09:00:05;13.50;99.90
10051;DHT22;5065;46.942;7.432;2023-03-21T09:02:38;13.60;99.90
10051;DHT22;5065;46.942;7.432;2023-03-21T09:05:06;13.70;99.90
10051;DHT22;5065;46.942;7.432;2023-03-21T09:07:34;13.80;99.90
10051;DHT22;5065;46.942;7.432;2023-03-21T09:10:02;14.00;99.90
10051;DHT22;5065;46.942;7.432;2023-03-21T09:12:30;14.10;99.90
10051;DHT22;5065;46.942;7.432;2023-03-21T09:14:58;14.30;99.90
10051;DHT22;5065;46.942;7.432;2023-03-21T09:17:27;14.30;99.90
10051;DHT22;5065;46.942;7.432;2023-03-21T09:19:57;14.50;99.90
10051;DHT22;5065;46.942;7.432;2023-03-21T09:22:25;14.60;99.90
10051;DHT22;5065;46.942;7.432;2023-03-21T09:24:53;14.80;99.90
10051;DHT22;5065;46.942;7.432;2023-03-21T09:27:23;15.10;99.90
10051;DHT22;5065;46.942;7.432;2023-03-21T09:29:52;15.20;99.90
10051;DHT22;5065;46.942;7.432;2023-03-21T09:32:20;15.30;99.90
10051;DHT22;5065;46.942;7.432;2023-03-21T09:34:47;15.40;99.90
10051;DHT22;5065;46.942;7.432;2023-03-21T09:37:17;15.50;99.90
10051;DHT22;5065;46.942;7.432;2023-03-21T09:39:45;15.50;99.90
10051;DHT22;5065;46.942;7.432;2023-03-21T09:42:20;15.60;99.90
10051;DHT22;5065;46.942;7.432;2023-03-21T09:45:04;15.60;99.90
10051;DHT22;5065;46.942;7.432;2023-03-21T09:47:38;15.70;99.90
10051;DHT22;5065;46.942;7.432;2023-03-21T09:50:13;15.70;99.90
10051;DHT22;5065;46.942;7.432;2023-03-21T09:52:46;15.70;99.90
10051;DHT22;5065;46.942;7.432;2023-03-21T09:55:18;15.70;99.90
10051;DHT22;5065;46.942;7.432;2023-03-21T09:57:48;15.90;99.90
10051;DHT22;5065;46.942;7.432;2023-03-21T10:00:20;16.00;99.90
10051;DHT22;5065;46.942;7.432;2023-03-21T10:02:51;16.10;99.90
10051;DHT22;5065;46.942;7.432;2023-03-21T10:05:26;16.20;99.90
10051;DHT22;5065;46.942;7.432;2023-03-21T10:07:58;16.20;99.90
10051;DHT22;5065;46.942;7.432;2023-03-21T10:10:33;16.20;99.90
10051;DHT22;5065;46.942;7.432;2023-03-21T10:13:02;16.30;99.90
10051;DHT22;5065;46.942;7.432;2023-03-21T10:15:30;16.30;99.90
10051;DHT22;5065;46.942;7.432;2023-03-21T10:18:00;16.40;99.90
10051;DHT22;5065;46.942;7.432;2023-03-21T10:20:30;16.40;99.90
10051;DHT22;5065;46.942;7.432;2023-03-21T10:23:02;16.40;99.90
10051;DHT22;5065;46.942;7.432;2023-03-21T10:25:31;16.50;99.90
10051;DHT22;5065;46.942;7.432;2023-03-21T10:28:00;16.50;99.90
10051;DHT22;5065;46.942;7.432;2023-03-21T10:30:37;16.60;99.90
10051;DHT22;5065;46.942;7.432;2023-03-21T10:33:09;16.60;99.90
10051;DHT22;5065;46.942;7.432;2023-03-21T10:35:38;16.60;99.90
10051;DHT22;5065;46.942;7.432;2023-03-21T10:38:15;16.70;99.90
10051;DHT22;5065;46.942;7.432;2023-03-21T10:40:43;16.70;99.90
10051;DHT22;5065;46.942;7.432;2023-03-21T10:43:32;16.70;99.90
10051;DHT22;5065;46.942;7.432;2023-03-21T10:46:06;16.70;99.90
10051;DHT22;5065;46.942;7.432;2023-03-21T10:48:37;16.70;99.90
10051;DHT22;5065;46.942;7.432;2023-03-21T10:51:06;16.70;99.90
10051;DHT22;5065;46.942;7.432;2023-03-21T10:53:38;16.70;99.90
10051;DHT22;5065;46.942;7.432;2023-03-21T10:56:08;16.80;99.90
10051;DHT22;5065;46.942;7.432;2023-03-21T10:58:40;16.80;99.90
10051;DHT22;5065;46.942;7.432;2023-03-21T11:01:12;16.80;99.90
10051;DHT22;5065;46.942;7.432;2023-03-21T11:03:43;16.90;99.90
10051;DHT22;5065;46.942;7.432;2023-03-21T11:06:14;16.90;99.90
10051;DHT22;5065;46.942;7.432;2023-03-21T11:08:46;16.80;99.90
10051;DHT22;5065;46.942;7.432;2023-03-21T11:11:24;16.90;99.90
10051;DHT22;5065;46.942;7.432;2023-03-21T11:13:57;16.90;99.90
10051;DHT22;5065;46.942;7.432;2023-03-21T11:16:30;17.00;99.90
10051;DHT22;5065;46.942;7.432;2023-03-21T11:19:01;17.00;99.90
10051;DHT22;5065;46.942;7.432;2023-03-21T11:21:35;17.00;99.90
10051;DHT22;5065;46.942;7.432;2023-03-21T11:24:05;17.00;99.90
10051;DHT22;5065;46.942;7.432;2023-03-21T11:26:35;17.00;99.90
10051;DHT22;5065;46.942;7.432;2023-03-21T11:29:16;17.00;99.90
10051;DHT22;5065;46.942;7.432;2023-03-21T11:31:46;17.00;99.90
10051;DHT22;5065;46.942;7.432;2023-03-21T11:34:24;17.00;99.90
10051;DHT22;5065;46.942;7.432;2023-03-21T11:36:58;17.00;99.90
10051;DHT22;5065;46.942;7.432;2023-03-21T11:39:37;17.00;99.90
10051;DHT22;5065;46.942;7.432;2023-03-21T11:42:27;17.00;99.90
10051;DHT22;5065;46.942;7.432;2023-03-21T11:45:01;17.10;99.90
10051;DHT22;5065;46.942;7.432;2023-03-21T11:47:29;17.10;99.90
10051;DHT22;5065;46.942;7.432;2023-03-21T11:49:57;17.10;99.90
10051;DHT22;5065;46.942;7.432;2023-03-21T11:52:31;17.20;99.90
10051;DHT22;5065;46.942;7.432;2023-03-21T11:55:23;17.20;99.90
10051;DHT22;5065;46.942;7.432;2023-03-21T11:58:09;17.20;99.90
10051;DHT22;5065;46.942;7.432;2023-03-21T12:00:44;17.20;99.90
10051;DHT22;5065;46.942;7.432;2023-03-21T12:06:18;17.20;99.90
10051;DHT22;5065;46.942;7.432;2023-03-21T12:08:57;17.30;99.90
10051;DHT22;5065;46.942;7.432;2023-03-21T12:11:35;17.30;99.90
10051;DHT22;5065;46.942;7.432;2023-03-21T12:14:09;17.30;99.90
10051;DHT22;5065;46.942;7.432;2023-03-21T12:16:47;17.30;99.90
10051;DHT22;5065;46.942;7.432;2023-03-21T12:19:37;17.30;99.90
10051;DHT22;5065;46.942;7.432;2023-03-21T12:22:15;17.40;99.90
10051;DHT22;5065;46.942;7.432;2023-03-21T12:24:50;17.30;99.90
10051;DHT22;5065;46.942;7.432;2023-03-21T12:27:27;17.40;99.90
10051;DHT22;5065;46.942;7.432;2023-03-21T12:30:19;17.40;99.90
10051;DHT22;5065;46.942;7.432;2023-03-21T12:33:01;17.40;99.90
10051;DHT22;5065;46.942;7.432;2023-03-21T12:35:40;17.40;99.90
10051;DHT22;5065;46.942;7.432;2023-03-21T12:38:15;17.40;99.90
10051;DHT22;5065;46.942;7.432;2023-03-21T12:40:58;17.40;99.90
10051;DHT22;5065;46.942;7.432;2023-03-21T12:43:43;17.50;99.90
10051;DHT22;5065;46.942;7.432;2023-03-21T12:46:15;17.50;99.90
10051;DHT22;5065;46.942;7.432;2023-03-21T12:48:47;17.50;99.90
10051;DHT22;5065;46.942;7.432;2023-03-21T12:51:18;17.50;99.90
10051;DHT22;5065;46.942;7.432;2023-03-21T12:53:57;17.50;99.90
10051;DHT22;5065;46.942;7.432;2023-03-21T12:56:29;17.50;99.90
10051;DHT22;5065;46.942;7.432;2023-03-21T12:59:07;17.50;99.90
10051;DHT22;5065;46.942;7.432;2023-03-21T13:01:39;17.50;99.90
10051;DHT22;5065;46.942;7.432;2023-03-21T13:04:43;17.60;99.90
10051;DHT22;5065;46.942;7.432;2023-03-21T13:07:14;17.60;99.90
10051;DHT22;5065;46.942;7.432;2023-03-21T13:09:44;17.50;99.90
10051;DHT22;5065;46.942;7.432;2023-03-21T13:12:21;17.50;99.90
10051;DHT22;5065;46.942;7.432;2023-03-21T13:15:16;17.50;99.90
10051;DHT22;5065;46.942;7.432;2023-03-21T13:17:49;17.50;99.90
10051;DHT22;5065;46.942;7.432;2023-03-21T13:20:24;17.50;99.90
10051;DHT22;5065;46.942;7.432;2023-03-21T13:22:52;17.50;99.90
10051;DHT22;5065;46.942;7.432;2023-03-21T13:25:21;17.50;99.90
10051;DHT22;5065;46.942;7.432;2023-03-21T13:27:53;17.50;99.90
10051;DHT22;5065;46.942;7.432;2023-03-21T13:30:24;17.50;99.90
10051;DHT22;5065;46.942;7.432;2023-03-21T13:33:03;17.50;99.90
10051;DHT22;5065;46.942;7.432;2023-03-21T13:35:35;17.50;99.90
10051;DHT22;5065;46.942;7.432;2023-03-21T13:38:05;17.50;99.90
10051;DHT22;5065;46.942;7.432;2023-03-21T13:40:39;17.50;99.90
10051;DHT22;5065;46.942;7.432;2023-03-21T13:43:33;17.50;99.90
10051;DHT22;5065;46.942;7.432;2023-03-21T13:46:09;17.50;99.90
10051;DHT22;5065;46.942;7.432;2023-03-21T13:48:43;17.50;99.90
10051;DHT22;5065;46.942;7.432;2023-03-21T13:51:10;17.50;99.90
10051;DHT22;5065;46.942;7.432;2023-03-21T13:53:38;17.50;99.90
10051;DHT22;5065;46.942;7.432;2023-03-21T13:56:47;17.50;99.90
10051;DHT22;5065;46.942;7.432;2023-03-21T13:59:17;17.50;99.90
10051;DHT22;5065;46.942;7.432;2023-03-21T14:01:59;17.50;99.90
10051;DHT22;5065;46.942;7.432;2023-03-21T14:04:29;17.50;99.90
10051;DHT22;5065;46.942;7.432;2023-03-21T14:07:01;17.50;99.90
10051;DHT22;5065;46.942;7.432;2023-03-21T14:09:34;17.50;99.90
10051;DHT22;5065;46.942;7.432;2023-03-21T14:12:04;17.50;99.90
10051;DHT22;5065;46.942;7.432;2023-03-21T14:14:36;17.50;99.90
10051;DHT22;5065;46.942;7.432;2023-03-21T14:17:12;17.50;99.90
10051;DHT22;5065;46.942;7.432;2023-03-21T14:19:39;17.50;99.90
10051;DHT22;5065;46.942;7.432;2023-03-21T14:22:09;17.50;99.90
10051;DHT22;5065;46.942;7.432;2023-03-21T14:24:37;17.50;99.90
10051;DHT22;5065;46.942;7.432;2023-03-21T14:27:06;17.50;99.90
10051;DHT22;5065;46.942;7.432;2023-03-21T14:29:34;17.50;99.90
10051;DHT22;5065;46.942;7.432;2023-03-21T14:32:03;17.60;99.90
10051;DHT22;5065;46.942;7.432;2023-03-21T14:34:34;17.60;99.90
10051;DHT22;5065;46.942;7.432;2023-03-21T14:37:01;17.60;99.90
10051;DHT22;5065;46.942;7.432;2023-03-21T14:39:30;17.60;99.90
10051;DHT22;5065;46.942;7.432;2023-03-21T14:42:02;17.60;99.90
10051;DHT22;5065;46.942;7.432;2023-03-21T14:44:33;17.60;99.90
10051;DHT22;5065;46.942;7.432;2023-03-21T14:47:02;17.60;99.90
10051;DHT22;5065;46.942;7.432;2023-03-21T14:49:32;17.60;99.90
10051;DHT22;5065;46.942;7.432;2023-03-21T14:52:02;17.60;99.90
10051;DHT22;5065;46.942;7.432;2023-03-21T14:54:30;17.60;99.90
10051;DHT22;5065;46.942;7.432;2023-03-21T14:57:00;17.60;99.90
10051;DHT22;5065;46.942;7.432;2023-03-21T14:59:31;17.50;99.90
10051;DHT22;5065;46.942;7.432;2023-03-21T15:02:02;17.60;99.90
10051;DHT22;5065;46.942;7.432;2023-03-21T15:04:32;17.60;99.90
10051;DHT22;5065;46.942;7.432;2023-03-21T15:07:00;17.60;99.90
10051;DHT22;5065;46.942;7.432;2023-03-21T15:09:31;17.60;99.90
10051;DHT22;5065;46.942;7.432;2023-03-21T15:12:00;17.60;99.90
10051;DHT22;5065;46.942;7.432;2023-03-21T15:14:31;17.60;99.90
10051;DHT22;5065;46.942;7.432;2023-03-21T15:17:00;17.60;99.90
10051;DHT22;5065;46.942;7.432;2023-03-21T15:19:34;17.70;99.90
10051;DHT22;5065;46.942;7.432;2023-03-21T15:22:07;17.60;99.90
10051;DHT22;5065;46.942;7.432;2023-03-21T15:24:38;17.70;99.90
10051;DHT22;5065;46.942;7.432;2023-03-21T15:27:07;17.70;99.90
10051;DHT22;5065;46.942;7.432;2023-03-21T15:29:39;17.70;99.90
10051;DHT22;5065;46.942;7.432;2023-03-21T15:32:13;17.70;99.90
10051;DHT22;5065;46.942;7.432;2023-03-21T15:34:44;17.60;99.90
10051;DHT22;5065;46.942;7.432;2023-03-21T15:37:17;17.60;99.90
10051;DHT22;5065;46.942;7.432;2023-03-21T15:39:47;17.60;99.90
10051;DHT22;5065;46.942;7.432;2023-03-21T15:42:26;17.60;99.90
10051;DHT22;5065;46.942;7.432;2023-03-21T15:44:56;17.60;99.90
10051;DHT22;5065;46.942;7.432;2023-03-21T15:47:40;17.60;99.90
10051;DHT22;5065;46.942;7.432;2023-03-21T15:50:17;17.60;99.90
10051;DHT22;5065;46.942;7.432;2023-03-21T15:52:48;17.60;99.90
10051;DHT22;5065;46.942;7.432;2023-03-21T15:55:21;17.60;99.90
10051;DHT22;5065;46.942;7.432;2023-03-21T15:57:52;17.60;99.90
10051;DHT22;5065;46.942;7.432;2023-03-21T16:00:24;17.60;99.90
10051;DHT22;5065;46.942;7.432;2023-03-21T16:02:56;17.60;99.90
10051;DHT22;5065;46.942;7.432;2023-03-21T16:05:27;17.60;99.90
10051;DHT22;5065;46.942;7.432;2023-03-21T16:08:02;17.50;99.90
10051;DHT22;5065;46.942;7.432;2023-03-21T16:10:32;17.50;99.90
10051;DHT22;5065;46.942;7.432;2023-03-21T16:13:01;17.50;99.90
10051;DHT22;5065;46.942;7.432;2023-03-21T16:15:29;17.50;99.90
10051;DHT22;5065;46.942;7.432;2023-03-21T16:17:59;17.50;99.90
10051;DHT22;5065;46.942;7.432;2023-03-21T16:20:31;17.50;99.90
10051;DHT22;5065;46.942;7.432;2023-03-21T16:22:59;17.40;99.90
10051;DHT22;5065;46.942;7.432;2023-03-21T16:25:28;17.40;99.90